createdAt,value
2022-08-26T00:02:02.098Z,93265.44
2022-08-26T00:05:07.370Z,93265.38
2022-08-26T00:08:14.195Z,93267.50
2022-08-26T00:11:26.909Z,93264.88
2022-08-26T00:14:30.870Z,93270.34
2022-08-26T00:17:35.861Z,93274.47
2022-08-26T00:20:43.667Z,93279.16
2022-08-26T00:23:47.978Z,93272.50
2022-08-26T00:26:53.088Z,93272.59
2022-08-26T00:29:56.731Z,93279.28
2022-08-26T00:33:01.631Z,93276.06
2022-08-26T00:36:06.411Z,93278.09
2022-08-26T00:39:10.753Z,93276.09
2022-08-26T00:42:15.043Z,93280.09
2022-08-26T00:45:20.330Z,93278.22
2022-08-26T00:48:27.789Z,93268.19
2022-08-26T00:51:42.967Z,93273.72
2022-08-26T00:55:05.906Z,93274.59
2022-08-26T00:58:09.903Z,93265.31
2022-08-26T01:01:14.057Z,93266.66
2022-08-26T01:04:20.837Z,93270.25
2022-08-26T01:07:31.269Z,93272.31
2022-08-26T01:10:35.305Z,93267.66
2022-08-26T01:13:39.843Z,93277.09
2022-08-26T01:16:44.293Z,93272.38
2022-08-26T01:20:01.178Z,93276.34
2022-08-26T01:23:08.730Z,93275.59
2022-08-26T01:26:26.994Z,93276.13
2022-08-26T01:29:33.101Z,93275.22
2022-08-26T01:32:38.950Z,93275.63
2022-08-26T01:35:43.451Z,93282.06
2022-08-26T01:38:48.202Z,93275.78
2022-08-26T01:41:57.302Z,93275.22
2022-08-26T01:45:14.137Z,93278.59
2022-08-26T01:48:23.798Z,93273.94
2022-08-26T01:51:28.643Z,93277.22
2022-08-26T01:54:32.653Z,93271.88
2022-08-26T01:57:37.513Z,93275.41
2022-08-26T02:00:40.693Z,93288.88
2022-08-26T02:04:04.260Z,93286.66
2022-08-26T02:07:10.358Z,93282.72
2022-08-26T02:10:16.378Z,93278.91
2022-08-26T02:13:20.165Z,93277.50
2022-08-26T02:16:29.730Z,93270.81
2022-08-26T02:19:36.689Z,93275.28
2022-08-26T02:22:40.911Z,93269.13
2022-08-26T02:25:50.243Z,93259.50
2022-08-26T02:29:00.761Z,93252.59
2022-08-26T02:32:07.744Z,93260.13
2022-08-26T02:35:13.859Z,93252.97
2022-08-26T02:38:23.915Z,93264.84
2022-08-26T02:41:27.712Z,93249.16
2022-08-26T02:44:32.300Z,93253.97
2022-08-26T02:47:37.988Z,93237.66
2022-08-26T02:50:41.885Z,93235.03
2022-08-26T02:53:46.734Z,93238.53
2022-08-26T02:56:51.901Z,93230.16
2022-08-26T02:59:54.927Z,93229.88
2022-08-26T03:02:59.328Z,93220.41
2022-08-26T03:06:02.786Z,93222.59
2022-08-26T03:09:07.210Z,93213.25
2022-08-26T03:12:11.244Z,93213.22
2022-08-26T03:15:19.789Z,93199.25
2022-08-26T03:18:23.385Z,93204.88
2022-08-26T03:21:27.821Z,93199.81
2022-08-26T03:24:32.581Z,93187.09
2022-08-26T03:27:36.778Z,93175.53
2022-08-26T03:30:45.503Z,93179.34
2022-08-26T03:33:49.626Z,93180.59
2022-08-26T03:36:56.084Z,93173.00
2022-08-26T03:40:00.075Z,93169.78
2022-08-26T03:43:06.943Z,93164.38
2022-08-26T03:46:13.756Z,93170.63
2022-08-26T03:49:17.791Z,93163.25
2022-08-26T03:52:21.565Z,93154.44
2022-08-26T03:55:28.727Z,93158.28
2022-08-26T03:58:32.739Z,93143.31
2022-08-26T04:01:37.296Z,93140.09
2022-08-26T04:04:41.938Z,93142.78
2022-08-26T04:07:47.569Z,93133.69
2022-08-26T04:10:52.410Z,93131.66
2022-08-26T04:13:56.317Z,93131.09
2022-08-26T04:17:00.426Z,93117.63
2022-08-26T04:20:07.410Z,93118.56
2022-08-26T04:23:12.079Z,93105.91
2022-08-26T04:26:16.746Z,93111.69
2022-08-26T04:29:25.087Z,93106.56
2022-08-26T04:32:29.486Z,93107.59
2022-08-26T04:35:32.869Z,93118.28
2022-08-26T04:38:37.786Z,93106.78
2022-08-26T04:41:41.478Z,93095.31
2022-08-26T04:44:47.135Z,93095.16
2022-08-26T04:47:55.193Z,93093.81
2022-08-26T04:51:00.744Z,93088.97
2022-08-26T04:54:04.430Z,93082.22
2022-08-26T04:57:07.971Z,93080.41
2022-08-26T05:00:15.718Z,93085.59
2022-08-26T05:03:20.523Z,93082.72
2022-08-26T05:06:24.248Z,93085.97
2022-08-26T05:09:28.183Z,93074.28
2022-08-26T05:12:32.074Z,93071.50
2022-08-26T05:15:37.566Z,93068.09
2022-08-26T05:18:44.027Z,93061.22
2022-08-26T05:21:49.497Z,93069.97
2022-08-26T05:24:53.226Z,93068.25
2022-08-26T05:27:58.929Z,93064.47
2022-08-26T05:31:02.276Z,93061.22
2022-08-26T05:34:07.001Z,93061.09
2022-08-26T05:37:13.640Z,93070.06
2022-08-26T05:40:18.089Z,93065.63
2022-08-26T05:43:23.644Z,93058.19
2022-08-26T05:46:28.312Z,93054.16
2022-08-26T05:49:31.514Z,93062.91
2022-08-26T05:52:35.635Z,93055.91
2022-08-26T05:55:48.015Z,93047.75
2022-08-26T05:58:51.771Z,93043.25
2022-08-26T06:01:58.035Z,93050.94
2022-08-26T06:05:01.429Z,93040.59
2022-08-26T06:08:19.159Z,93026.06
2022-08-26T06:11:27.931Z,93045.91
2022-08-26T06:14:31.736Z,93029.56
2022-08-26T06:17:35.430Z,93031.44
2022-08-26T06:20:44.156Z,93021.81
2022-08-26T06:24:27.218Z,93015.19
2022-08-26T06:27:32.827Z,93018.47
2022-08-26T06:30:41.262Z,93019.22
2022-08-26T06:33:45.769Z,93006.66
2022-08-26T06:36:53.107Z,93010.28
2022-08-26T06:39:57.594Z,93009.75
2022-08-26T06:43:02.221Z,93018.34
2022-08-26T06:46:11.021Z,93010.47
2022-08-26T06:49:15.927Z,93008.38
2022-08-26T06:52:24.319Z,93015.00
2022-08-26T06:55:28.490Z,93007.09
2022-08-26T06:58:32.954Z,93005.31
2022-08-26T07:01:43.086Z,93013.09
2022-08-26T07:04:47.835Z,93006.72
2022-08-26T07:07:53.322Z,93002.88
2022-08-26T07:10:57.324Z,93002.44
2022-08-26T07:14:02.148Z,93003.94
2022-08-26T07:17:11.037Z,92996.56
2022-08-26T07:20:19.247Z,92999.59
2022-08-26T07:23:23.457Z,92993.78
2022-08-26T07:26:30.944Z,92994.69
2022-08-26T07:29:35.589Z,93002.97
2022-08-26T07:32:38.851Z,92991.91
2022-08-26T07:35:42.980Z,92993.25
2022-08-26T07:38:48.569Z,92986.47
2022-08-26T07:41:53.386Z,92977.34
2022-08-26T07:44:56.787Z,92983.13
2022-08-26T07:48:01.475Z,92981.50
2022-08-26T07:51:07.509Z,92979.88
2022-08-26T07:54:12.131Z,92970.88
2022-08-26T07:57:16.481Z,92980.19
2022-08-26T08:00:23.197Z,92961.72
2022-08-26T08:03:27.789Z,92961.09
2022-08-26T08:06:31.160Z,92964.44
2022-08-26T08:09:35.373Z,92965.41
2022-08-26T08:12:39.691Z,92974.66
2022-08-26T08:15:43.305Z,92967.97
2022-08-26T08:18:47.019Z,92975.19
2022-08-26T08:21:51.556Z,92981.16
2022-08-26T08:24:55.718Z,92971.13
2022-08-26T08:27:58.697Z,92972.97
2022-08-26T08:31:03.343Z,92977.13
2022-08-26T08:34:07.535Z,92966.03
2022-08-26T08:37:11.285Z,92971.53
2022-08-26T08:40:19.525Z,92977.16
2022-08-26T08:43:37.514Z,92971.53
2022-08-26T08:46:43.464Z,92976.78
2022-08-26T08:49:47.905Z,92990.25
2022-08-26T08:53:13.673Z,92983.66
2022-08-26T08:56:29.930Z,92973.50
2022-08-26T08:59:35.982Z,92979.81
2022-08-26T09:02:59.996Z,92960.31
2022-08-26T09:06:17.522Z,92962.00
2022-08-26T09:09:31.587Z,92975.72
2022-08-26T09:12:35.977Z,92967.50
2022-08-26T09:15:58.599Z,92976.38
2022-08-26T09:19:24.003Z,92973.72
2022-08-26T09:22:34.199Z,92970.63
2022-08-26T09:25:56.527Z,92978.56
2022-08-26T09:29:15.565Z,92964.94
2022-08-26T09:32:27.065Z,92971.97
2022-08-26T09:35:37.000Z,92968.88
2022-08-26T09:38:42.637Z,92967.44
2022-08-26T09:42:18.496Z,92964.69
2022-08-26T09:45:29.574Z,92963.94
2022-08-26T09:48:36.942Z,92969.84
2022-08-26T09:51:40.743Z,92961.78
2022-08-26T09:54:46.214Z,92968.41
2022-08-26T09:57:55.978Z,92962.31
2022-08-26T10:01:03.662Z,92962.56
2022-08-26T10:04:27.082Z,92960.97
2022-08-26T10:07:47.995Z,92953.91
2022-08-26T10:10:53.847Z,92950.38
2022-08-26T10:14:03.650Z,92952.56
2022-08-26T10:17:14.646Z,92946.97
2022-08-26T10:20:26.681Z,92943.00
2022-08-26T10:23:35.200Z,92944.34
2022-08-26T10:27:00.845Z,92946.47
2022-08-26T10:30:15.651Z,92939.63
2022-08-26T10:33:20.043Z,92948.50
2022-08-26T10:37:10.802Z,92947.69
2022-08-26T10:40:19.584Z,92943.00
2022-08-26T10:43:29.212Z,92945.34
2022-08-26T10:46:45.415Z,92948.91
2022-08-26T10:49:55.589Z,92940.53
2022-08-26T10:53:24.882Z,92931.97
2022-08-26T10:56:51.097Z,92940.25
2022-08-26T11:00:00.634Z,92938.97
2022-08-26T11:03:09.802Z,92935.91
2022-08-26T11:06:29.759Z,92940.59
2022-08-26T11:09:48.517Z,92939.19
2022-08-26T11:13:07.945Z,92944.81
2022-08-26T11:16:11.452Z,92941.28
2022-08-26T11:20:01.431Z,92939.44
2022-08-26T11:23:24.512Z,92941.88
2022-08-26T11:26:55.686Z,92947.59
2022-08-26T11:30:18.308Z,92951.59
2022-08-26T11:33:47.997Z,92953.31
2022-08-26T11:36:58.848Z,92957.72
2022-08-26T11:40:08.709Z,92961.13
2022-08-26T11:43:19.335Z,92960.09
2022-08-26T11:46:38.521Z,92963.53
2022-08-26T11:49:43.303Z,92965.81
2022-08-26T11:53:07.751Z,92966.81
2022-08-26T11:56:24.954Z,92974.44
2022-08-26T12:02:43.508Z,92966.41
2022-08-26T12:05:50.335Z,92970.81
2022-08-26T12:08:56.987Z,92977.19
2022-08-26T12:12:17.307Z,92983.81
2022-08-26T12:15:23.599Z,92982.72
2022-08-26T12:18:33.093Z,92974.63
2022-08-26T12:21:38.115Z,92990.44
2022-08-26T12:24:50.587Z,92988.41
2022-08-26T12:27:55.187Z,92993.59
2022-08-26T12:31:04.750Z,92995.16
2022-08-26T12:34:18.441Z,92993.19
2022-08-26T12:37:22.845Z,92995.50
2022-08-26T12:40:34.102Z,92992.16
2022-08-26T12:43:44.299Z,92990.22
2022-08-26T12:46:49.827Z,92991.69
2022-08-26T12:50:12.997Z,92994.50
2022-08-26T12:53:23.846Z,92996.03
2022-08-26T12:56:41.787Z,92994.03
2022-08-26T12:59:45.640Z,92997.50
2022-08-26T13:02:48.865Z,92997.06
2022-08-26T13:05:52.385Z,93005.97
2022-08-26T13:08:55.416Z,93000.16
2022-08-26T13:12:00.013Z,92994.88
2022-08-26T13:15:07.761Z,92995.63
2022-08-26T13:18:10.940Z,92997.69
2022-08-26T13:21:22.030Z,92994.38
2022-08-26T13:24:41.299Z,92998.00
2022-08-26T13:27:45.474Z,92992.66
2022-08-26T13:30:50.342Z,92990.03
2022-08-26T13:33:53.922Z,92997.53
2022-08-26T13:36:59.023Z,93000.97
2022-08-26T13:40:02.439Z,92987.50
2022-08-26T13:43:06.548Z,92994.38
2022-08-26T13:46:10.748Z,92978.41
2022-08-26T13:49:14.711Z,92989.19
2022-08-26T13:52:18.743Z,92987.84
2022-08-26T13:55:35.162Z,93000.06
2022-08-26T13:58:39.630Z,92986.72
2022-08-26T14:01:43.657Z,92993.44
2022-08-26T14:04:47.861Z,92995.59
2022-08-26T14:07:51.557Z,92993.03
2022-08-26T14:10:55.220Z,92995.00
2022-08-26T14:13:58.319Z,93001.69
2022-08-26T14:17:02.602Z,92997.63
2022-08-26T14:20:09.558Z,92997.66
2022-08-26T14:23:14.435Z,92996.31
2022-08-26T14:26:29.148Z,92999.00
2022-08-26T14:29:32.996Z,92993.72
2022-08-26T14:32:42.068Z,92996.47
2022-08-26T14:35:48.848Z,92996.59
2022-08-26T14:38:52.897Z,93003.41
2022-08-26T14:41:58.144Z,93006.88
2022-08-26T14:45:04.618Z,93006.91
2022-08-26T14:48:08.240Z,93006.31
2022-08-26T14:51:12.059Z,93006.38
2022-08-26T14:54:18.156Z,93004.47
2022-08-26T14:57:21.831Z,93007.84
2022-08-26T15:00:25.582Z,93007.91
2022-08-26T15:03:29.542Z,93013.34
2022-08-26T15:06:33.589Z,93015.47
2022-08-26T15:09:38.308Z,93008.13
2022-08-26T15:12:43.301Z,93008.25
2022-08-26T15:15:47.619Z,93008.84
2022-08-26T15:18:52.590Z,93013.53
2022-08-26T15:21:55.928Z,93019.63
2022-08-26T15:24:59.493Z,93019.72
2022-08-26T15:28:03.060Z,93021.78
2022-08-26T15:31:08.208Z,93019.13
2022-08-26T15:34:16.338Z,93017.16
2022-08-26T15:37:20.025Z,93024.56
2022-08-26T15:40:26.544Z,93028.59
2022-08-26T15:43:30.137Z,93029.31
2022-08-26T15:46:34.093Z,93038.03
2022-08-26T15:49:39.070Z,93046.16
2022-08-26T15:52:42.695Z,93037.44
2022-08-26T15:55:46.000Z,93042.13
2022-08-26T15:58:49.789Z,93036.78
2022-08-26T16:01:53.845Z,93044.19
2022-08-26T16:04:57.646Z,93050.19
2022-08-26T16:08:04.504Z,93052.94
2022-08-26T16:11:08.653Z,93049.56
2022-08-26T16:14:12.282Z,93051.59
2022-08-26T16:17:15.453Z,93051.59
2022-08-26T16:20:19.520Z,93046.25
2022-08-26T16:23:24.858Z,93054.97
2022-08-26T16:26:33.382Z,93054.97
2022-08-26T16:29:39.858Z,93065.13
2022-08-26T16:32:44.103Z,93054.38
2022-08-26T16:35:47.304Z,93059.75
2022-08-26T16:38:57.196Z,93064.50
2022-08-26T16:42:01.020Z,93061.13
2022-08-26T16:45:06.163Z,93065.19
2022-08-26T16:48:10.457Z,93059.84
2022-08-26T16:51:17.101Z,93067.25
2022-08-26T16:54:20.822Z,93057.22
2022-08-26T16:57:24.637Z,93057.22
2022-08-26T17:00:30.008Z,93059.91
2022-08-26T17:03:33.888Z,93054.53
2022-08-26T17:06:37.322Z,93056.56
2022-08-26T17:09:42.572Z,93055.22
2022-08-26T17:12:46.298Z,93049.88
2022-08-26T17:15:55.022Z,93057.28
2022-08-26T17:19:04.996Z,93046.53
2022-08-26T17:22:13.409Z,93051.91
2022-08-26T17:25:26.382Z,93047.91
2022-08-26T17:28:30.486Z,93049.91
2022-08-26T17:31:34.788Z,93058.69
2022-08-26T17:34:38.319Z,93049.28
2022-08-26T17:37:41.954Z,93047.25
2022-08-26T17:40:46.268Z,93045.91
2022-08-26T17:43:49.900Z,93049.97
2022-08-26T17:46:53.683Z,93045.25
2022-08-26T17:49:57.891Z,93042.56
2022-08-26T17:53:01.578Z,93055.31
2022-08-26T17:56:14.151Z,93053.97
2022-08-26T17:59:18.469Z,93053.97
2022-08-26T18:02:22.380Z,93048.59
2022-08-26T18:05:25.828Z,93052.00
2022-08-26T18:08:29.364Z,93051.97
2022-08-26T18:11:33.500Z,93045.94
2022-08-26T18:14:37.721Z,93040.56
2022-08-26T18:17:42.701Z,93041.22
2022-08-26T18:20:46.773Z,93041.88
2022-08-26T18:23:57.883Z,93042.56
2022-08-26T18:27:01.564Z,93048.59
2022-08-26T18:30:11.330Z,93047.28
2022-08-26T18:33:17.755Z,93044.56
2022-08-26T18:36:24.644Z,93039.19
2022-08-26T18:39:28.815Z,93040.53
2022-08-26T18:42:32.240Z,93035.16
2022-08-26T18:45:35.565Z,93042.53
2022-08-26T18:48:41.339Z,93040.53
2022-08-26T18:51:45.965Z,93041.19
2022-08-26T18:54:49.683Z,93036.47
2022-08-26T18:57:53.373Z,93041.16
2022-08-26T19:00:56.871Z,93039.13
2022-08-26T19:04:01.789Z,93046.44
2022-08-26T19:07:06.617Z,93042.41
2022-08-26T19:10:12.799Z,93038.41
2022-08-26T19:13:16.482Z,93043.09
2022-08-26T19:16:26.490Z,93043.81
2022-08-26T19:19:31.336Z,93043.81
2022-08-26T19:22:34.555Z,93054.50
2022-08-26T19:25:54.062Z,93055.84
2022-08-26T19:28:58.060Z,93053.81
2022-08-26T19:32:02.731Z,93061.22
2022-08-26T19:35:06.842Z,93063.84
2022-08-26T19:38:11.098Z,93058.50
2022-08-26T19:41:20.151Z,93059.81
2022-08-26T19:44:43.785Z,93061.16
2022-08-26T19:47:47.910Z,93062.50
2022-08-26T19:50:51.040Z,93061.16
2022-08-26T19:53:56.956Z,93062.50
2022-08-26T19:56:59.998Z,93065.81
2022-08-26T20:00:03.382Z,93055.75
2022-08-26T20:03:10.698Z,93061.81
2022-08-26T20:06:20.590Z,93066.44
2022-08-26T20:09:24.299Z,93069.78
2022-08-26T20:12:28.302Z,93063.75
2022-08-26T20:15:31.690Z,93058.34
2022-08-26T20:18:53.685Z,93060.34
2022-08-26T20:21:57.691Z,93059.63
2022-08-26T20:25:00.855Z,93062.97
2022-08-26T20:28:04.212Z,93062.91
2022-08-26T20:31:07.366Z,93064.22
2022-08-26T20:34:14.119Z,93065.44
2022-08-26T20:37:18.464Z,93068.78
2022-08-26T20:40:25.268Z,93055.31
2022-08-26T20:43:29.045Z,93062.00
2022-08-26T20:46:32.518Z,93059.25
2022-08-26T20:49:36.437Z,93057.94
2022-08-26T20:52:40.019Z,93056.59
2022-08-26T20:55:43.156Z,93053.97
2022-08-26T20:58:47.268Z,93051.25
2022-08-26T21:01:52.895Z,93053.22
2022-08-26T21:04:56.423Z,93055.16
2022-08-26T21:07:59.799Z,93045.13
2022-08-26T21:11:03.583Z,93049.63
2022-08-26T21:14:15.943Z,93054.31
2022-08-26T21:17:20.737Z,93044.88
2022-08-26T21:20:24.674Z,93042.78
2022-08-26T21:23:29.342Z,93047.44
2022-08-26T21:26:33.224Z,93044.66
2022-08-26T21:29:38.150Z,93050.00
2022-08-26T21:32:41.720Z,93057.28
2022-08-26T21:35:55.353Z,93059.28
2022-08-26T21:38:59.272Z,93058.47
2022-08-26T21:42:02.415Z,93059.56
2022-08-26T21:45:06.474Z,93058.06
2022-08-26T21:48:11.190Z,93057.34
2022-08-26T21:51:17.377Z,93065.34
2022-08-26T21:54:21.386Z,93055.06
2022-08-26T21:57:27.088Z,93050.97
2022-08-26T22:00:30.873Z,93060.34
2022-08-26T22:03:35.198Z,93061.09
2022-08-26T22:06:53.881Z,93063.94
2022-08-26T22:09:57.709Z,93067.22
2022-08-26T22:13:01.458Z,93064.91
2022-08-26T22:16:07.110Z,93074.78
2022-08-26T22:19:13.705Z,93065.56
2022-08-26T22:22:21.479Z,93072.28
2022-08-26T22:25:26.024Z,93065.75
2022-08-26T22:28:29.892Z,93072.50
2022-08-26T22:31:37.355Z,93077.69
2022-08-26T22:34:42.797Z,93070.31
2022-08-26T22:37:46.749Z,93077.22
2022-08-26T22:40:52.498Z,93072.66
2022-08-26T22:43:55.613Z,93070.03
2022-08-26T22:46:59.986Z,93068.63
2022-08-26T22:50:04.401Z,93063.28
2022-08-26T22:53:08.015Z,93074.63
2022-08-26T22:56:12.057Z,93076.53
2022-08-26T22:59:16.721Z,93071.09
2022-08-26T23:02:20.728Z,93071.06
2022-08-26T23:05:24.747Z,93071.19
2022-08-26T23:08:28.500Z,93066.72
2022-08-26T23:11:32.839Z,93070.09
2022-08-26T23:14:35.942Z,93078.28
2022-08-26T23:17:40.409Z,93075.19
2022-08-26T23:20:43.739Z,93076.94
2022-08-26T23:23:47.919Z,93066.84
2022-08-26T23:26:51.699Z,93068.28
2022-08-26T23:29:56.804Z,93071.09
2022-08-26T23:33:00.651Z,93065.78
2022-08-26T23:36:09.034Z,93065.94
2022-08-26T23:39:13.975Z,93070.75
2022-08-26T23:42:18.636Z,93074.13
2022-08-26T23:45:23.907Z,93072.09
2022-08-26T23:48:28.199Z,93071.50
2022-08-26T23:51:50.561Z,93065.59
2022-08-26T23:54:55.122Z,93060.94
2022-08-26T23:57:59.226Z,93064.47
